Nova Veneza, Brazil
Current Conditions -  °F | °C
As of 11:45 PM on Thursday 30 Oct 2014 (Local Time) from SBCM Reporting Station
Broken Clouds Broken Clouds  
Wind Chill: 70°   Ceiling: 5000
Heat Index: 70°   Visibility: 6mi
Dew Point: 68°   Wind: 2mph
Humidity: 94%   Direction: 190°S
Pressure: 29.85"   Gusts: NA
Location:  28.64°S, 49.5°W
Report Text: SBCM 310145Z 19002KT 9999 FEW010 BKN050 21/20 Q1011
Loading
Personal Weather Stations






























Interactive Weather Map
Tropical Storm Tracking
New forecast layout! Learn more

10-Day Weather Forecast

Advertisements
Track Severe Weather on mobile